Time;durP1;ratioP1;P1;durP2;ratioP2;P2;SDS_P1;SDS_P2;PMS_P1;PMS_P2;Temp;Humidity;BMP_temperature;BMP_pressure;BME280_temperature;BME280_humidity;BME280_pressure;Samples;Min_cycle;Max_cycle;Signal;HPM_P1;HPM_P2
2021/11/10 00:01:22;;;;;;;18.55;10.95;;;;;;;;;;4992993;28;20100;-67
2021/11/10 00:03:49;;;;;;;46.65;22.17;;;;;;;;;;4993330;28;20058;-67
2021/11/10 00:06:15;;;;;;;32.85;16.83;;;;;;;;;;4993326;28;20054;-68
2021/11/10 00:08:42;;;;;;;18.23;10.45;;;;;;;;;;4993357;28;20058;-67
2021/11/10 00:11:09;;;;;;;14.38;10.60;;;;;;;;;;4993077;28;20050;-68
2021/11/10 00:13:35;;;;;;;22.77;11.35;;;;;;;;;;4992993;28;20049;-67
2021/11/10 00:16:02;;;;;;;18.48;11.18;;;;;;;;;;4993212;28;20057;-67
2021/11/10 00:18:29;;;;;;;19.23;10.27;;;;;;;;;;4993231;28;20054;-67
2021/11/10 00:20:56;;;;;;;20.15;10.90;;;;;;;;;;5009438;28;20046;-68
2021/11/10 00:23:23;;;;;;;20.67;11.05;;;;;;;;;;5012357;28;20081;-67
2021/11/10 00:25:50;;;;;;;18.85;10.80;;;;;;;;;;5012554;28;20050;-68
2021/11/10 00:28:17;;;;;;;16.60;10.65;;;;;;;;;;5012412;28;20050;-68
2021/11/10 00:30:43;;;;;;;17.08;10.35;;;;;;;;;;5012408;28;20050;-68
2021/11/10 00:33:10;;;;;;;20.00;10.85;;;;;;;;;;5012379;28;20107;-68
2021/11/10 00:35:38;;;;;;;18.27;11.25;;;;;;;;;;5012272;28;20062;-68
2021/11/10 00:38:05;;;;;;;21.17;10.73;;;;;;;;;;5012588;28;20054;-68
2021/11/10 00:40:31;;;;;;;20.48;11.27;;;;;;;;;;5010673;28;20124;-68
2021/11/10 00:42:58;;;;;;;18.50;11.27;;;;;;;;;;5011179;28;20468;-67
2021/11/10 00:45:25;;;;;;;18.10;11.45;;;;;;;;;;5005244;28;20056;-67
2021/11/10 00:47:52;;;;;;;25.20;13.15;;;;;;;;;;4992663;28;20047;-67
2021/11/10 00:50:18;;;;;;;17.38;10.77;;;;;;;;;;4991214;28;20493;-67
2021/11/10 00:52:45;;;;;;;19.35;10.68;;;;;;;;;;4992394;28;20046;-67
2021/11/10 00:55:12;;;;;;;18.45;11.50;;;;;;;;;;4992771;28;20057;-68
2021/11/10 00:57:38;;;;;;;18.75;10.60;;;;;;;;;;4992630;28;20054;-68
2021/11/10 01:00:06;;;;;;;14.68;10.02;;;;;;;;;;4992223;28;20077;-68
2021/11/10 01:02:33;;;;;;;16.77;11.10;;;;;;;;;;4992273;28;20112;-68
2021/11/10 01:05:00;;;;;;;17.25;11.10;;;;;;;;;;4992457;28;20054;-68
2021/11/10 01:07:27;;;;;;;15.77;11.10;;;;;;;;;;4995483;28;20108;-68
2021/11/10 01:09:58;;;;;;;20.80;11.57;;;;;;;;;;5011871;28;20060;-68
2021/11/10 01:12:24;;;;;;;18.83;11.75;;;;;;;;;;5011641;28;20046;-68
2021/11/10 01:14:51;;;;;;;16.02;10.63;;;;;;;;;;5011984;28;20050;-68
2021/11/10 01:17:18;;;;;;;18.58;10.65;;;;;;;;;;5011904;28;20108;-68
2021/11/10 01:19:44;;;;;;;18.20;10.35;;;;;;;;;;5011672;28;20041;-68
2021/11/10 01:22:11;;;;;;;19.23;10.90;;;;;;;;;;5011763;28;20054;-68
2021/11/10 01:24:38;;;;;;;17.85;10.98;;;;;;;;;;5010837;28;20054;-68
2021/11/10 01:27:05;;;;;;;19.42;11.82;;;;;;;;;;5012149;28;20066;-68
2021/11/10 01:29:32;;;;;;;21.75;11.80;;;;;;;;;;5011553;28;20054;-68
2021/11/10 01:32:00;;;;;;;16.63;11.48;;;;;;;;;;5011827;28;20054;-68
2021/11/10 01:34:27;;;;;;;14.80;10.93;;;;;;;;;;5011897;28;20058;-67
2021/11/10 01:36:53;;;;;;;13.90;10.27;;;;;;;;;;5011987;28;20054;-67
2021/11/10 01:39:22;;;;;;;12.27;9.57;;;;;;;;;;5004656;28;20112;-68
2021/11/10 01:41:51;;;;;;;17.17;9.80;;;;;;;;;;4991883;28;20084;-68
2021/11/10 01:44:25;;;;;;;16.98;10.35;;;;;;;;;;4992148;28;20058;-67
2021/11/10 01:46:55;;;;;;;16.48;10.00;;;;;;;;;;4992234;28;20113;-67
2021/11/10 01:49:25;;;;;;;14.52;9.77;;;;;;;;;;4992199;28;20449;-68
2021/11/10 01:51:54;;;;;;;18.48;9.35;;;;;;;;;;4994104;28;20057;-68
2021/11/10 01:54:22;;;;;;;17.15;9.55;;;;;;;;;;4995661;28;20472;-68
2021/11/10 01:56:49;;;;;;;15.38;10.15;;;;;;;;;;4995970;28;20054;-68
2021/11/10 01:59:30;;;;;;;16.50;9.88;;;;;;;;;;4995359;28;20058;-68
2021/11/10 02:01:58;;;;;;;16.60;10.23;;;;;;;;;;4995494;28;20585;-68
2021/11/10 02:04:29;;;;;;;21.25;11.43;;;;;;;;;;5010271;28;20068;-68
2021/11/10 02:06:55;;;;;;;18.15;9.57;;;;;;;;;;4984680;28;20050;-68
2021/11/10 02:09:23;;;;;;;18.50;10.18;;;;;;;;;;5010415;28;20065;-68
2021/11/10 02:11:53;;;;;;;18.67;10.45;;;;;;;;;;4995360;28;20062;-68
2021/11/10 02:14:21;;;;;;;17.60;9.70;;;;;;;;;;4995494;28;20058;-68
2021/11/10 02:16:49;;;;;;;17.05;9.98;;;;;;;;;;4994141;28;20054;-68
2021/11/10 02:19:16;;;;;;;13.45;8.95;;;;;;;;;;4995209;28;20050;-67
2021/11/10 02:21:47;;;;;;;16.55;10.27;;;;;;;;;;4995019;28;20540;-68
2021/11/10 02:24:14;;;;;;;20.58;9.95;;;;;;;;;;4995196;28;20112;-68
2021/11/10 02:26:42;;;;;;;21.75;12.68;;;;;;;;;;4994119;28;20087;-68
2021/11/10 02:29:21;;;;;;;19.40;9.65;;;;;;;;;;4995014;28;20183;-68
2021/11/10 02:31:48;;;;;;;16.90;9.60;;;;;;;;;;4995069;28;20046;-68
2021/11/10 02:34:15;;;;;;;18.38;9.40;;;;;;;;;;4993781;28;20138;-68
2021/11/10 02:36:41;;;;;;;19.55;10.55;;;;;;;;;;4995112;28;20117;-68
2021/11/10 02:39:11;;;;;;;16.67;10.30;;;;;;;;;;4994842;28;20563;-68
2021/11/10 02:41:38;;;;;;;17.52;10.25;;;;;;;;;;4994785;28;20133;-67
2021/11/10 02:44:06;;;;;;;14.48;9.00;;;;;;;;;;4994688;28;20568;-67
2021/11/10 02:46:36;;;;;;;16.38;9.35;;;;;;;;;;4994712;28;20054;-68
2021/11/10 02:49:05;;;;;;;15.60;9.82;;;;;;;;;;4994777;28;20560;-68
2021/11/10 02:51:32;;;;;;;20.58;10.02;;;;;;;;;;4994659;28;20417;-68
2021/11/10 02:53:59;;;;;;;18.70;9.88;;;;;;;;;;4994693;28;20104;-68
2021/11/10 02:56:25;;;;;;;16.33;9.95;;;;;;;;;;4994692;28;20054;-68
2021/11/10 02:58:52;;;;;;;16.65;9.93;;;;;;;;;;4987377;28;20506;-68
2021/11/10 03:01:18;;;;;;;14.88;9.25;;;;;;;;;;4974977;28;20055;-68
2021/11/10 03:03:45;;;;;;;16.60;9.27;;;;;;;;;;4973562;28;20057;-68
2021/11/10 03:09:59;;;;;;;17.25;9.18;;;;;;;;;;4975164;28;20107;-68
2021/11/10 03:12:26;;;;;;;15.18;9.63;;;;;;;;;;4991681;28;20062;-68
2021/11/10 03:14:52;;;;;;;16.80;9.13;;;;;;;;;;4994413;28;20046;-68
2021/11/10 03:17:20;;;;;;;14.48;9.32;;;;;;;;;;4994216;28;20109;-67
2021/11/10 03:19:47;;;;;;;18.20;9.90;;;;;;;;;;4994140;28;20203;-68
2021/11/10 03:22:14;;;;;;;14.98;8.70;;;;;;;;;;4994001;28;20054;-67
2021/11/10 03:24:41;;;;;;;14.38;8.93;;;;;;;;;;4994258;28;20493;-67
2021/11/10 03:27:08;;;;;;;12.00;8.15;;;;;;;;;;4992771;28;20101;-67
2021/11/10 03:29:36;;;;;;;13.32;8.57;;;;;;;;;;4993882;28;20077;-67
2021/11/10 03:32:04;;;;;;;13.13;8.57;;;;;;;;;;4980219;28;20078;-67
2021/11/10 03:34:30;;;;;;;14.52;9.07;;;;;;;;;;4974413;28;20058;-67
2021/11/10 03:36:57;;;;;;;17.00;9.65;;;;;;;;;;4974638;28;20059;-67
2021/11/10 03:39:26;;;;;;;16.25;9.43;;;;;;;;;;4974415;28;20137;-67
2021/11/10 03:41:53;;;;;;;15.90;9.95;;;;;;;;;;4974243;28;20098;-67
2021/11/10 03:44:19;;;;;;;14.52;10.30;;;;;;;;;;4974047;28;20054;-67
2021/11/10 03:46:46;;;;;;;16.50;10.45;;;;;;;;;;4974443;28;20070;-67
2021/11/10 03:49:14;;;;;;;18.42;10.55;;;;;;;;;;4974162;28;20133;-67
2021/11/10 03:51:41;;;;;;;17.90;10.23;;;;;;;;;;4974463;28;20051;-67
2021/11/10 03:54:08;;;;;;;21.15;11.65;;;;;;;;;;4974174;28;20097;-67
2021/11/10 03:56:35;;;;;;;16.92;10.55;;;;;;;;;;4974309;28;20058;-67
2021/11/10 03:59:02;;;;;;;17.15;10.63;;;;;;;;;;4974286;28;20325;-67
2021/11/10 04:01:29;;;;;;;21.30;11.70;;;;;;;;;;4973633;28;20135;-68
2021/11/10 04:03:56;;;;;;;18.10;11.25;;;;;;;;;;4973944;28;20101;-68
2021/11/10 04:06:23;;;;;;;19.88;11.57;;;;;;;;;;4979989;28;20113;-69
2021/11/10 04:08:51;;;;;;;18.88;11.57;;;;;;;;;;4993149;28;20054;-67
2021/11/10 04:11:20;;;;;;;19.65;13.48;;;;;;;;;;4986844;28;20506;-68
2021/11/10 04:13:47;;;;;;;17.05;10.13;;;;;;;;;;4973268;28;20051;-67
2021/11/10 04:16:14;;;;;;;16.25;10.43;;;;;;;;;;4973708;28;20058;-68
2021/11/10 04:18:41;;;;;;;15.48;10.50;;;;;;;;;;4973804;28;20130;-68
2021/11/10 04:21:08;;;;;;;17.38;10.70;;;;;;;;;;4976443;28;20066;-68
2021/11/10 04:23:34;;;;;;;17.80;11.80;;;;;;;;;;4973339;28;20398;-67
2021/11/10 04:26:03;;;;;;;23.77;12.68;;;;;;;;;;4973572;28;20101;-68
2021/11/10 04:28:30;;;;;;;23.85;12.35;;;;;;;;;;4973499;28;20407;-68
2021/11/10 04:30:57;;;;;;;19.95;11.98;;;;;;;;;;4974895;28;20050;-67
2021/11/10 04:33:27;;;;;;;19.88;12.32;;;;;;;;;;4992362;28;20055;-68
2021/11/10 04:35:54;;;;;;;20.02;11.60;;;;;;;;;;4992889;28;20054;-67
2021/11/10 04:38:21;;;;;;;18.10;11.75;;;;;;;;;;4992855;28;20062;-67
2021/11/10 04:40:48;;;;;;;16.67;10.90;;;;;;;;;;4992627;28;20138;-67
2021/11/10 04:43:15;;;;;;;21.48;11.50;;;;;;;;;;4992305;28;20050;-67
2021/11/10 04:45:42;;;;;;;18.42;10.82;;;;;;;;;;4992797;28;20054;-67
2021/11/10 04:48:09;;;;;;;18.33;12.57;;;;;;;;;;4992799;28;20046;-67
2021/11/10 04:50:37;;;;;;;21.38;12.13;;;;;;;;;;4992508;28;20050;-69
2021/11/10 04:53:04;;;;;;;18.45;11.60;;;;;;;;;;4972917;28;20047;-69
2021/11/10 04:55:31;;;;;;;19.52;11.75;;;;;;;;;;4972970;28;20490;-69
2021/11/10 04:57:58;;;;;;;14.35;10.77;;;;;;;;;;4973213;28;20054;-69
2021/11/10 05:00:25;;;;;;;22.27;11.88;;;;;;;;;;4972866;28;20403;-69
2021/11/10 05:02:52;;;;;;;18.70;11.75;;;;;;;;;;4989639;28;20078;-68
2021/11/10 05:05:19;;;;;;;18.95;11.50;;;;;;;;;;4992103;28;20050;-68
2021/11/10 05:07:49;;;;;;;18.70;11.85;;;;;;;;;;4992736;28;20100;-69
2021/11/10 05:10:17;;;;;;;17.25;11.35;;;;;;;;;;4992540;28;20077;-69
2021/11/10 05:12:43;;;;;;;20.83;10.77;;;;;;;;;;4992270;28;20058;-69
2021/11/10 05:15:10;;;;;;;15.65;10.48;;;;;;;;;;4992158;28;20109;-69
2021/11/10 05:17:37;;;;;;;18.25;10.80;;;;;;;;;;4992218;28;20050;-69
2021/11/10 05:20:04;;;;;;;17.95;11.52;;;;;;;;;;4992247;28;20089;-69
2021/11/10 05:22:37;;;;;;;18.63;11.43;;;;;;;;;;4991049;28;20046;-69
2021/11/10 05:25:05;;;;;;;15.75;11.32;;;;;;;;;;4992993;28;20050;-69
2021/11/10 05:27:32;;;;;;;18.38;12.05;;;;;;;;;;4996193;28;20454;-69
2021/11/10 05:29:59;;;;;;;23.15;13.48;;;;;;;;;;5016466;23;20054;-73
2021/11/10 05:32:25;;;;;;;24.50;14.45;;;;;;;;;;4995812;28;20519;-74
2021/11/10 05:34:52;;;;;;;27.15;13.88;;;;;;;;;;4996137;28;20053;-74
2021/11/10 05:37:19;;;;;;;25.65;14.73;;;;;;;;;;4996254;28;20054;-72
2021/11/10 05:39:45;;;;;;;20.92;15.05;;;;;;;;;;5011237;28;20054;-74
2021/11/10 05:42:13;;;;;;;35.33;20.90;;;;;;;;;;4995706;28;20050;-73
2021/11/10 05:44:41;;;;;;;56.10;35.72;;;;;;;;;;4996039;28;20050;-73
2021/11/10 05:47:09;;;;;;;67.03;42.33;;;;;;;;;;4996028;28;20046;-73
2021/11/10 05:49:37;;;;;;;63.38;38.90;;;;;;;;;;4995806;28;20054;-73
2021/11/10 05:52:06;;;;;;;51.05;30.52;;;;;;;;;;4995734;28;20050;-72
2021/11/10 05:54:32;;;;;;;27.33;17.88;;;;;;;;;;4995868;28;20047;-73
2021/11/10 05:57:00;;;;;;;25.90;15.68;;;;;;;;;;4994662;28;20103;-72
2021/11/10 05:59:27;;;;;;;27.65;15.15;;;;;;;;;;4995643;28;20053;-73
2021/11/10 06:01:56;;;;;;;23.58;14.25;;;;;;;;;;4995464;28;20057;-72
2021/11/10 06:04:23;;;;;;;21.63;14.60;;;;;;;;;;4994556;28;20457;-72
2021/11/10 06:06:49;;;;;;;22.08;12.27;;;;;;;;;;4995684;28;20065;-72
2021/11/10 06:09:16;;;;;;;24.90;14.13;;;;;;;;;;4994299;28;20054;-73
2021/11/10 06:11:45;;;;;;;22.08;13.32;;;;;;;;;;4994938;28;20050;-73
2021/11/10 06:14:12;;;;;;;25.70;12.63;;;;;;;;;;4995566;28;20409;-71
2021/11/10 06:16:38;;;;;;;20.50;12.38;;;;;;;;;;4994146;28;20054;-71
2021/11/10 06:19:05;;;;;;;22.88;14.73;;;;;;;;;;4992425;28;20054;-71
2021/11/10 06:21:32;;;;;;;20.13;11.43;;;;;;;;;;4993015;28;20083;-71
2021/11/10 06:23:58;;;;;;;18.20;12.05;;;;;;;;;;4993137;28;20054;-71
2021/11/10 06:26:25;;;;;;;20.15;12.95;;;;;;;;;;4993140;28;20116;-72
2021/11/10 06:28:52;;;;;;;20.25;12.00;;;;;;;;;;4992885;28;20046;-70
2021/11/10 06:31:19;;;;;;;20.90;13.43;;;;;;;;;;4992313;28;20456;-71
2021/11/10 06:33:45;;;;;;;22.65;12.57;;;;;;;;;;4993337;28;20383;-71
2021/11/10 06:36:12;;;;;;;23.33;12.48;;;;;;;;;;4992592;28;20132;-73
2021/11/10 06:38:39;;;;;;;23.90;12.50;;;;;;;;;;4981701;28;20054;-72
2021/11/10 06:41:05;;;;;;;26.77;14.65;;;;;;;;;;4973357;28;20410;-73
2021/11/10 06:43:32;;;;;;;21.17;12.95;;;;;;;;;;4972637;28;20461;-70
2021/11/10 06:45:59;;;;;;;21.38;13.23;;;;;;;;;;4973393;28;20387;-70
2021/11/10 06:48:25;;;;;;;21.77;13.85;;;;;;;;;;4973574;28;20055;-70
2021/11/10 06:50:52;;;;;;;22.30;13.38;;;;;;;;;;4973395;28;20129;-70
2021/11/10 06:53:19;;;;;;;27.00;13.88;;;;;;;;;;4972977;28;20055;-70
2021/11/10 06:55:45;;;;;;;22.67;13.80;;;;;;;;;;4973331;28;20062;-70
2021/11/10 06:58:12;;;;;;;27.55;14.27;;;;;;;;;;4972783;28;20059;-70
2021/11/10 07:00:39;;;;;;;23.83;14.00;;;;;;;;;;5038903;23;20117;-70
2021/11/10 07:03:07;;;;;;;25.23;16.08;;;;;;;;;;4973087;28;20059;-70
2021/11/10 07:05:33;;;;;;;28.73;15.50;;;;;;;;;;4973241;28;20459;-71
2021/11/10 07:08:00;;;;;;;24.38;14.43;;;;;;;;;;4972836;28;20058;-71
2021/11/10 07:10:27;;;;;;;23.90;14.93;;;;;;;;;;4972180;28;20047;-71
2021/11/10 07:12:53;;;;;;;23.83;14.70;;;;;;;;;;4972831;28;20051;-71
2021/11/10 07:15:20;;;;;;;27.15;15.30;;;;;;;;;;4972935;28;20133;-71
2021/11/10 07:17:46;;;;;;;27.27;15.27;;;;;;;;;;4972959;28;20549;-70
2021/11/10 07:20:13;;;;;;;25.42;15.80;;;;;;;;;;5011331;23;20111;-71
2021/11/10 07:22:40;;;;;;;28.98;16.23;;;;;;;;;;5030837;28;20049;-70
2021/11/10 07:25:07;;;;;;;28.63;15.15;;;;;;;;;;5031612;28;20466;-71
2021/11/10 07:27:34;;;;;;;26.73;15.00;;;;;;;;;;5031400;28;20053;-70
2021/11/10 07:30:06;;;;;;;24.90;13.50;;;;;;;;;;5031602;28;20549;-71
2021/11/10 07:32:35;;;;;;;23.83;14.23;;;;;;;;;;5031223;28;20492;-70
2021/11/10 07:35:03;;;;;;;26.45;14.00;;;;;;;;;;5031497;28;20045;-70
2021/11/10 07:37:31;;;;;;;23.98;15.32;;;;;;;;;;5031132;28;20054;-69
2021/11/10 07:42:39;;;;;;;25.25;14.73;;;;;;;;;;4559654;26;20106;-71
2021/11/10 07:45:08;;;;;;;23.58;16.10;;;;;;;;;;4971419;28;20315;-73
2021/11/10 07:47:42;;;;;;;22.35;14.38;;;;;;;;;;4972369;28;20051;-70
2021/11/10 07:50:15;;;;;;;22.13;14.55;;;;;;;;;;4970906;28;20051;-70
2021/11/10 07:52:41;;;;;;;28.42;14.50;;;;;;;;;;4971321;28;20050;-71
2021/11/10 07:55:09;;;;;;;22.98;14.38;;;;;;;;;;4971990;28;20461;-71
2021/11/10 07:57:36;;;;;;;21.63;14.15;;;;;;;;;;4972010;28;20080;-71
2021/11/10 08:00:06;;;;;;;19.40;14.35;;;;;;;;;;4971036;28;20059;-71
2021/11/10 08:02:32;;;;;;;21.77;13.90;;;;;;;;;;4971445;28;20062;-72
2021/11/10 08:04:59;;;;;;;21.90;13.88;;;;;;;;;;4972206;28;20065;-74
2021/11/10 08:07:26;;;;;;;25.25;14.23;;;;;;;;;;4972301;28;20118;-72
2021/11/10 08:09:55;;;;;;;19.75;13.75;;;;;;;;;;4973783;28;20561;-72
2021/11/10 08:12:22;;;;;;;23.83;14.75;;;;;;;;;;4973701;28;20089;-72
2021/11/10 08:14:49;;;;;;;24.77;14.35;;;;;;;;;;4973913;28;20108;-72
2021/11/10 08:17:15;;;;;;;20.92;13.77;;;;;;;;;;4973817;28;20497;-71
2021/11/10 08:19:42;;;;;;;21.13;13.27;;;;;;;;;;4972486;28;20050;-70
2021/11/10 08:22:09;;;;;;;20.38;12.50;;;;;;;;;;4972745;28;20457;-69
2021/11/10 08:24:36;;;;;;;23.85;13.48;;;;;;;;;;4973632;28;20575;-70
2021/11/10 08:27:03;;;;;;;19.38;13.30;;;;;;;;;;4968793;28;20560;-70
2021/11/10 08:29:29;;;;;;;21.25;13.90;;;;;;;;;;4973472;28;20089;-71
2021/11/10 08:31:56;;;;;;;22.23;14.27;;;;;;;;;;4973353;28;20502;-71
2021/11/10 08:34:22;;;;;;;23.88;14.18;;;;;;;;;;4967596;28;20493;-75
2021/11/10 08:36:49;;;;;;;24.50;13.98;;;;;;;;;;4973435;28;20054;-71
2021/11/10 08:39:16;;;;;;;23.77;13.88;;;;;;;;;;4968242;28;20557;-75
2021/11/10 08:41:47;;;;;;;21.48;12.88;;;;;;;;;;4958208;28;20153;-71
2021/11/10 08:44:17;;;;;;;21.63;13.55;;;;;;;;;;4964337;28;20051;-70
2021/11/10 08:46:44;;;;;;;20.90;15.20;;;;;;;;;;4956792;28;20050;-72
2021/11/10 08:49:11;;;;;;;20.63;13.00;;;;;;;;;;4960677;28;20055;-72
2021/11/10 08:51:39;;;;;;;19.40;13.02;;;;;;;;;;4973200;28;20050;-71
2021/11/10 08:54:06;;;;;;;21.52;13.05;;;;;;;;;;4957218;28;20493;-70
2021/11/10 08:56:33;;;;;;;24.88;13.20;;;;;;;;;;4957338;28;20466;-70
2021/11/10 08:59:00;;;;;;;22.17;14.18;;;;;;;;;;4968000;28;20058;-70
2021/11/10 09:01:28;;;;;;;24.95;13.98;;;;;;;;;;4958074;28;20493;-75
2021/11/10 09:03:56;;;;;;;24.35;14.63;;;;;;;;;;4960976;28;20082;-72
2021/11/10 09:06:25;;;;;;;20.38;13.70;;;;;;;;;;4964880;28;20130;-73
2021/11/10 09:08:52;;;;;;;23.92;15.20;;;;;;;;;;4961665;28;20047;-73
2021/11/10 09:11:19;;;;;;;24.58;13.98;;;;;;;;;;4964227;28;20051;-72
2021/11/10 09:13:46;;;;;;;22.52;13.50;;;;;;;;;;4960364;28;20149;-71
2021/11/10 09:16:13;;;;;;;22.83;13.45;;;;;;;;;;4966410;28;20054;-71
2021/11/10 09:18:39;;;;;;;25.98;14.85;;;;;;;;;;4958052;28;20051;-73
2021/11/10 09:21:06;;;;;;;23.30;13.98;;;;;;;;;;4965631;28;20059;-71
2021/11/10 09:23:33;;;;;;;23.42;15.02;;;;;;;;;;4956063;28;20055;-74
2021/11/10 09:26:00;;;;;;;26.25;15.88;;;;;;;;;;4962850;28;20508;-74
2021/11/10 09:28:27;;;;;;;23.50;15.55;;;;;;;;;;4956781;28;20079;-72
2021/11/10 09:31:00;;;;;;;24.83;14.93;;;;;;;;;;4959281;28;20505;-72
2021/11/10 09:33:32;;;;;;;30.67;14.60;;;;;;;;;;4958453;28;20054;-71
2021/11/10 09:36:08;;;;;;;21.92;14.25;;;;;;;;;;4959964;28;20054;-75
2021/11/10 09:38:43;;;;;;;23.45;14.30;;;;;;;;;;4960574;28;20054;-74
2021/11/10 09:41:15;;;;;;;21.98;13.63;;;;;;;;;;4957901;28;20059;-71
2021/11/10 09:43:43;;;;;;;19.27;13.00;;;;;;;;;;4963237;28;20047;-71
2021/11/10 09:46:18;;;;;;;24.27;13.68;;;;;;;;;;4959190;28;20051;-70
2021/11/10 09:48:45;;;;;;;22.77;14.13;;;;;;;;;;4960909;28;20051;-69
2021/11/10 09:51:12;;;;;;;18.88;14.10;;;;;;;;;;4963679;28;20498;-72
2021/11/10 09:53:39;;;;;;;26.70;14.05;;;;;;;;;;4962586;28;20584;-72
2021/11/10 09:56:06;;;;;;;22.58;13.35;;;;;;;;;;4961465;28;20051;-69
2021/11/10 09:58:33;;;;;;;20.77;13.40;;;;;;;;;;4966275;28;20501;-73
2021/11/10 10:01:05;;;;;;;21.00;13.55;;;;;;;;;;4958069;28;20501;-73
2021/11/10 10:03:32;;;;;;;21.48;13.20;;;;;;;;;;4957897;28;20055;-70
2021/11/10 10:05:59;;;;;;;22.40;13.05;;;;;;;;;;4960995;28;20075;-70
2021/11/10 10:08:26;;;;;;;20.05;12.90;;;;;;;;;;4940062;28;20102;-72
2021/11/10 10:10:53;;;;;;;18.15;12.35;;;;;;;;;;4957698;28;20055;-74
2021/11/10 10:13:20;;;;;;;18.10;13.20;;;;;;;;;;4966892;28;20047;-75
2021/11/10 10:15:49;;;;;;;20.27;12.93;;;;;;;;;;4958694;28;20051;-69
2021/11/10 10:18:21;;;;;;;19.42;13.10;;;;;;;;;;4965535;28;20046;-70
2021/11/10 10:21:00;;;;;;;23.02;12.75;;;;;;;;;;4963890;28;20102;-71
2021/11/10 10:23:40;;;;;;;22.05;13.57;;;;;;;;;;4967222;28;20043;-72
2021/11/10 10:26:11;;;;;;;21.35;13.27;;;;;;;;;;4965282;28;20050;-71
2021/11/10 10:28:44;;;;;;;17.77;12.38;;;;;;;;;;4970715;28;20117;-69
2021/11/10 10:31:12;;;;;;;21.63;12.50;;;;;;;;;;4967371;28;20472;-69
2021/11/10 10:33:44;;;;;;;17.67;12.65;;;;;;;;;;4966177;28;20043;-70
2021/11/10 10:36:16;;;;;;;20.38;13.82;;;;;;;;;;4963856;28;20059;-70
2021/11/10 10:38:54;;;;;;;19.13;13.70;;;;;;;;;;4967721;28;20058;-70
2021/11/10 10:41:25;;;;;;;19.73;12.90;;;;;;;;;;4967578;28;20129;-72
2021/11/10 10:43:53;;;;;;;18.92;12.98;;;;;;;;;;4968994;28;20363;-74
2021/11/10 10:46:27;;;;;;;19.80;12.88;;;;;;;;;;4965046;28;20046;-73
2021/11/10 10:49:20;;;;;;;18.98;13.27;;;;;;;;;;4960918;28;20059;-76
2021/11/10 10:51:54;;;;;;;19.92;12.95;;;;;;;;;;4978598;28;20063;-72
2021/11/10 10:54:28;;;;;;;17.42;12.25;;;;;;;;;;4965994;28;20043;-72
2021/11/10 10:57:02;;;;;;;18.38;12.93;;;;;;;;;;4964415;28;20339;-72
2021/11/10 10:59:29;;;;;;;16.65;12.02;;;;;;;;;;4965521;28;20058;-75
2021/11/10 11:01:58;;;;;;;21.13;12.27;;;;;;;;;;4963306;28;20058;-76
2021/11/10 11:04:31;;;;;;;18.95;12.48;;;;;;;;;;4960573;28;20422;-75
2021/11/10 11:07:02;;;;;;;23.40;13.27;;;;;;;;;;4961322;28;20058;-75
2021/11/10 11:09:31;;;;;;;18.30;12.85;;;;;;;;;;4963625;28;20059;-74
2021/11/10 11:12:01;;;;;;;20.45;13.75;;;;;;;;;;4960542;28;20118;-74
2021/11/10 11:14:44;;;;;;;16.80;11.85;;;;;;;;;;4962032;28;20051;-73
2021/11/10 11:17:30;;;;;;;22.15;12.60;;;;;;;;;;4960296;28;20054;-73
2021/11/10 11:20:06;;;;;;;18.63;12.82;;;;;;;;;;4961804;28;20154;-72
2021/11/10 11:22:41;;;;;;;17.13;12.50;;;;;;;;;;4960142;28;20447;-70
2021/11/10 11:25:16;;;;;;;18.95;12.52;;;;;;;;;;4963115;28;20428;-70
2021/11/10 11:28:04;;;;;;;21.67;12.55;;;;;;;;;;4966232;28;20098;-70
2021/11/10 11:30:37;;;;;;;20.10;12.35;;;;;;;;;;4961245;28;20118;-70
2021/11/10 11:33:09;;;;;;;18.83;13.43;;;;;;;;;;5010728;23;20543;-66
2021/11/10 11:35:57;;;;;;;22.15;13.20;;;;;;;;;;5018622;28;20577;-66
2021/11/10 11:38:26;;;;;;;21.08;13.38;;;;;;;;;;5020783;28;20049;-68
2021/11/10 11:40:55;;;;;;;17.52;12.68;;;;;;;;;;5017744;28;20524;-67
2021/11/10 11:43:26;;;;;;;19.35;12.98;;;;;;;;;;5025270;28;20495;-67
2021/11/10 11:45:55;;;;;;;23.58;12.50;;;;;;;;;;5019759;28;20049;-68
2021/11/10 11:48:24;;;;;;;21.95;13.95;;;;;;;;;;5019829;28;20308;-67
2021/11/10 11:50:51;;;;;;;21.52;12.98;;;;;;;;;;5020609;28;20061;-68
2021/11/10 11:53:19;;;;;;;26.27;13.32;;;;;;;;;;5020458;28;20042;-69
2021/11/10 11:55:55;;;;;;;18.40;12.50;;;;;;;;;;5021037;28;20096;-69
2021/11/10 11:58:38;;;;;;;19.48;12.88;;;;;;;;;;5021642;28;20060;-69
2021/11/10 12:01:09;;;;;;;16.80;13.15;;;;;;;;;;5021638;28;20062;-70
2021/11/10 12:03:44;;;;;;;20.42;12.88;;;;;;;;;;5021511;28;20041;-69
2021/11/10 12:06:18;;;;;;;18.85;12.65;;;;;;;;;;5017736;28;20410;-73
2021/11/10 12:08:52;;;;;;;19.35;13.10;;;;;;;;;;5017334;28;20054;-71
2021/11/10 12:11:19;;;;;;;19.73;13.10;;;;;;;;;;5020525;28;20470;-72
2021/11/10 12:14:04;;;;;;;19.17;12.68;;;;;;;;;;5020387;28;20042;-71
2021/11/10 12:16:53;;;;;;;16.45;12.07;;;;;;;;;;5017950;28;20510;-73
2021/11/10 12:19:37;;;;;;;25.52;13.95;;;;;;;;;;5021470;28;20456;-69
2021/11/10 12:22:05;;;;;;;16.17;12.05;;;;;;;;;;5021938;28;20057;-71
2021/11/10 12:24:51;;;;;;;24.63;13.63;;;;;;;;;;5015390;28;20056;-71
2021/11/10 12:27:42;;;;;;;24.23;14.02;;;;;;;;;;5017045;28;20107;-68
2021/11/10 12:30:12;;;;;;;21.83;14.32;;;;;;;;;;5016626;28;20128;-69
2021/11/10 12:32:39;;;;;;;21.17;13.02;;;;;;;;;;5020284;28;20124;-70
2021/11/10 12:35:27;;;;;;;19.13;13.40;;;;;;;;;;5018294;28;20049;-74
2021/11/10 12:37:55;;;;;;;20.38;13.23;;;;;;;;;;5018579;28;20116;-71
2021/11/10 12:40:36;;;;;;;20.35;13.02;;;;;;;;;;5017665;28;20049;-73
2021/11/10 12:43:03;;;;;;;20.48;12.80;;;;;;;;;;5016536;28;20084;-66
2021/11/10 12:45:34;;;;;;;21.98;13.63;;;;;;;;;;5016746;28;20062;-67
2021/11/10 12:48:26;;;;;;;18.17;13.52;;;;;;;;;;5016443;28;20519;-67
2021/11/10 12:50:53;;;;;;;18.23;13.43;;;;;;;;;;5018526;28;20497;-67
2021/11/10 12:53:41;;;;;;;19.40;13.77;;;;;;;;;;5016565;28;20049;-67
2021/11/10 12:56:08;;;;;;;20.00;13.02;;;;;;;;;;5019687;28;20108;-66
2021/11/10 12:58:35;;;;;;;18.83;12.20;;;;;;;;;;5022242;28;20054;-67
2021/11/10 13:01:13;;;;;;;19.80;12.65;;;;;;;;;;5016415;28;20057;-67
2021/11/10 13:03:41;;;;;;;17.98;13.15;;;;;;;;;;5020507;28;20119;-67
2021/11/10 13:06:09;;;;;;;19.42;12.73;;;;;;;;;;5014487;28;20088;-67
2021/11/10 13:08:50;;;;;;;19.83;11.65;;;;;;;;;;5017061;28;20103;-67
2021/11/10 13:11:20;;;;;;;19.67;11.85;;;;;;;;;;5019917;28;20057;-67
2021/11/10 13:13:49;;;;;;;15.13;11.95;;;;;;;;;;5018769;28;20496;-67
2021/11/10 13:16:16;;;;;;;19.33;12.60;;;;;;;;;;5018710;28;20053;-67
2021/11/10 13:18:44;;;;;;;19.92;12.77;;;;;;;;;;5017494;28;20104;-67
2021/11/10 13:21:12;;;;;;;23.33;12.65;;;;;;;;;;4999913;28;20053;-66
2021/11/10 13:23:38;;;;;;;19.67;13.25;;;;;;;;;;5015350;28;20100;-67
2021/11/10 13:26:07;;;;;;;17.90;12.25;;;;;;;;;;5018311;28;20073;-66
2021/11/10 13:28:33;;;;;;;18.60;11.77;;;;;;;;;;5000947;28;20557;-66
2021/11/10 13:31:00;;;;;;;18.35;11.68;;;;;;;;;;5016943;28;20135;-66
2021/11/10 13:33:35;;;;;;;20.35;12.48;;;;;;;;;;5017549;28;20562;-66
2021/11/10 13:36:11;;;;;;;19.75;12.93;;;;;;;;;;5016874;28;20608;-66
2021/11/10 13:38:51;;;;;;;20.55;12.18;;;;;;;;;;5019350;28;20053;-66
2021/11/10 13:41:48;;;;;;;27.33;13.48;;;;;;;;;;5018272;28;20514;-66
2021/11/10 13:44:29;;;;;;;21.85;13.30;;;;;;;;;;5027577;28;20046;-66
2021/11/10 13:46:56;;;;;;;18.88;12.32;;;;;;;;;;5020482;28;20104;-66
2021/11/10 13:49:28;;;;;;;24.40;14.20;;;;;;;;;;5019470;28;20115;-66
2021/11/10 13:52:02;;;;;;;19.95;12.55;;;;;;;;;;5024260;28;20058;-66
2021/11/10 13:54:42;;;;;;;19.08;13.30;;;;;;;;;;5022527;28;20107;-67
2021/11/10 13:57:18;;;;;;;19.85;11.88;;;;;;;;;;5026723;28;20096;-66
2021/11/10 13:59:47;;;;;;;21.92;12.85;;;;;;;;;;5022184;28;20046;-65
2021/11/10 14:02:20;;;;;;;22.00;12.50;;;;;;;;;;5019326;28;20479;-66
2021/11/10 14:04:51;;;;;;;;;;;;;;;;;;5025049;28;20041;-66
2021/11/10 14:07:18;;;;;;;24.60;12.98;;;;;;;;;;5024018;28;19921;-65
2021/11/10 14:10:06;;;;;;;19.20;12.45;;;;;;;;;;5019834;28;20099;-66
2021/11/10 14:12:40;;;;;;;21.73;12.95;;;;;;;;;;5022228;28;20053;-65
2021/11/10 14:15:10;;;;;;;22.30;13.02;;;;;;;;;;5024264;28;20104;-65
2021/11/10 14:17:50;;;;;;;25.98;13.95;;;;;;;;;;5019926;28;20054;-65
2021/11/10 14:20:46;;;;;;;22.48;13.35;;;;;;;;;;5022892;28;20064;-65
2021/11/10 14:23:23;;;;;;;24.52;14.20;;;;;;;;;;5023605;28;20083;-66
2021/11/10 14:25:52;;;;;;;21.08;13.50;;;;;;;;;;5021251;28;20054;-65
2021/11/10 14:28:36;;;;;;;24.65;14.50;;;;;;;;;;5028698;28;20127;-66
2021/11/10 14:31:08;;;;;;;20.83;14.70;;;;;;;;;;5022834;28;20097;-65
2021/11/10 14:33:37;;;;;;;22.85;15.90;;;;;;;;;;5022631;28;20038;-65
2021/11/10 14:36:17;;;;;;;23.45;14.20;;;;;;;;;;5024522;28;20084;-66
2021/11/10 14:38:46;;;;;;;24.30;15.05;;;;;;;;;;5022688;28;20054;-67